Time;durP1;ratioP1;P1;durP2;ratioP2;P2;SDS_P1;SDS_P2;PMS_P1;PMS_P2;Temp;Humidity;BMP_temperature;BMP_pressure;BME280_temperature;BME280_humidity;BME280_pressure;Samples;Min_cycle;Max_cycle;Signal;HPM_P1;HPM_P2
2021/07/07 00:00:59;;;;;;;14.65;7.80;;;;;;;21.65;100.00;100354.87;1790687;78;20991;-60
2021/07/07 00:03:26;;;;;;;13.22;7.55;;;;;;;21.64;100.00;100359.93;1800429;78;21440;-61
2021/07/07 00:05:53;;;;;;;10.10;7.80;;;;;;;21.62;100.00;100352.38;1798389;78;21138;-61
2021/07/07 00:08:21;;;;;;;10.82;7.08;;;;;;;21.61;100.00;100366.50;1798282;78;20882;-61
2021/07/07 00:10:48;;;;;;;8.68;7.05;;;;;;;21.61;100.00;100371.11;1818977;77;21027;-61
2021/07/07 00:13:14;;;;;;;8.68;7.47;;;;;;;21.62;100.00;100368.75;1821463;77;21196;-61
2021/07/07 00:15:42;;;;;;;12.35;7.75;;;;;;;21.62;100.00;100379.66;1838805;77;20988;-61
2021/07/07 00:18:10;;;;;;;10.85;7.67;;;;;;;21.63;100.00;100395.03;1823000;77;21101;-61
2021/07/07 00:23:14;;;;;;;12.03;7.70;;;;;;;21.64;100.00;100385.84;1825576;77;20940;-61
2021/07/07 00:25:41;;;;;;;12.50;8.40;;;;;;;21.64;100.00;100381.75;1830418;77;20935;-61
2021/07/07 00:28:09;;;;;;;9.30;7.85;;;;;;;21.63;100.00;100384.11;1823947;77;21049;-61
2021/07/07 00:30:36;;;;;;;14.65;8.35;;;;;;;21.63;100.00;100385.96;1785595;78;21071;-61
2021/07/07 00:33:03;;;;;;;13.03;8.55;;;;;;;21.63;100.00;100378.66;1814596;77;21921;-61
2021/07/07 00:35:30;;;;;;;13.30;7.75;;;;;;;21.65;100.00;100382.63;1826552;77;20955;-61
2021/07/07 00:37:56;;;;;;;13.50;8.93;;;;;;;21.66;100.00;100383.88;1829005;77;20864;-61
2021/07/07 00:40:23;;;;;;;16.73;8.70;;;;;;;21.65;100.00;100397.15;1822391;77;20936;-61
2021/07/07 00:42:49;;;;;;;11.08;8.23;;;;;;;21.66;100.00;100377.54;1820618;77;21588;-61
2021/07/07 00:45:16;;;;;;;11.55;7.47;;;;;;;21.66;100.00;100375.69;1786568;78;20951;-61
2021/07/07 00:47:45;;;;;;;12.80;7.87;;;;;;;21.64;100.00;100377.66;1756494;80;21071;-60
2021/07/07 00:50:13;;;;;;;9.10;7.20;;;;;;;21.63;100.00;100370.48;1783355;78;20964;-61
2021/07/07 00:52:39;;;;;;;12.03;7.78;;;;;;;21.60;100.00;100393.94;1776662;78;21536;-61
2021/07/07 00:55:09;;;;;;;13.95;7.72;;;;;;;21.59;100.00;100378.57;1772921;79;21578;-61
2021/07/07 00:57:36;;;;;;;11.40;7.92;;;;;;;21.57;100.00;100394.20;1776500;79;20992;-61
2021/07/07 01:00:09;;;;;;;15.83;8.43;;;;;;;21.55;100.00;100390.72;1820907;77;21756;-61
2021/07/07 01:02:40;;;;;;;8.95;7.60;;;;;;;21.53;100.00;100388.63;1777178;79;21489;-61
2021/07/07 01:05:09;;;;;;;9.45;7.50;;;;;;;21.50;100.00;100403.42;1811298;77;21381;-61
2021/07/07 01:07:36;;;;;;;13.75;6.85;;;;;;;21.46;100.00;100394.62;1821262;77;21335;-61
2021/07/07 01:10:05;;;;;;;12.75;6.87;;;;;;;21.42;100.00;100395.90;1808592;77;21836;-61
2021/07/07 01:12:32;;;;;;;10.03;7.10;;;;;;;21.34;100.00;100405.25;1782472;78;20981;-62
2021/07/07 01:15:10;;;;;;;11.50;6.85;;;;;;;21.30;100.00;100379.23;1779844;78;20968;-62
2021/07/07 01:17:36;;;;;;;12.05;7.03;;;;;;;21.26;100.00;100392.77;1766321;78;21113;-61
2021/07/07 01:20:12;;;;;;;12.00;7.12;;;;;;;21.22;100.00;100407.66;1778567;78;21115;-61
2021/07/07 01:22:39;;;;;;;13.15;7.17;;;;;;;21.19;100.00;100419.68;1771695;78;20940;-61
2021/07/07 01:25:08;;;;;;;16.23;6.87;;;;;;;21.15;100.00;100408.67;1782996;78;21446;-61
2021/07/07 01:27:35;;;;;;;10.68;6.33;;;;;;;21.12;100.00;100418.00;1778785;79;21399;-61
2021/07/07 01:30:06;;;;;;;16.40;6.58;;;;;;;21.11;100.00;100412.66;1781749;79;20949;-61
2021/07/07 01:32:33;;;;;;;14.03;6.83;;;;;;;21.06;100.00;100428.03;1781640;79;21112;-61
2021/07/07 01:35:03;;;;;;;11.73;6.50;;;;;;;21.01;100.00;100412.58;1783034;79;20949;-61
2021/07/07 01:37:30;;;;;;;12.75;7.20;;;;;;;20.99;100.00;100423.59;1786275;79;20972;-61
2021/07/07 01:39:56;;;;;;;10.32;6.50;;;;;;;20.96;100.00;100434.77;1779219;79;20933;-61
2021/07/07 01:42:22;;;;;;;11.55;6.20;;;;;;;20.94;100.00;100422.28;1781888;78;21573;-60
2021/07/07 01:44:49;;;;;;;8.58;5.92;;;;;;;20.91;100.00;100424.75;1781168;78;21113;-60
2021/07/07 01:47:15;;;;;;;7.53;5.95;;;;;;;20.89;100.00;100435.80;1780032;79;20992;-61
2021/07/07 01:49:44;;;;;;;10.65;6.30;;;;;;;20.87;100.00;100443.20;1759483;79;21037;-60
2021/07/07 01:52:10;;;;;;;12.03;6.40;;;;;;;20.86;100.00;100430.58;1787927;79;20984;-60
2021/07/07 01:54:37;;;;;;;10.48;6.75;;;;;;;20.84;100.00;100429.84;1783850;78;20977;-60
2021/07/07 01:57:03;;;;;;;12.47;6.78;;;;;;;20.84;100.00;100438.02;1780723;78;21827;-60
2021/07/07 01:59:30;;;;;;;8.65;6.53;;;;;;;20.83;100.00;100432.72;1788236;79;20918;-60
2021/07/07 02:01:57;;;;;;;12.55;7.03;;;;;;;20.82;100.00;100441.38;1783156;79;21556;-61
2021/07/07 02:04:24;;;;;;;10.80;7.20;;;;;;;20.82;100.00;100441.88;1739022;81;21844;-60
2021/07/07 02:06:50;;;;;;;13.53;7.67;;;;;;;20.82;100.00;100455.51;1703914;82;21414;-60
2021/07/07 02:09:19;;;;;;;16.67;7.10;;;;;;;20.82;100.00;100443.25;1777213;79;21677;-61
2021/07/07 02:11:47;;;;;;;10.10;6.97;;;;;;;20.81;100.00;100439.64;1811539;77;20921;-60
2021/07/07 02:14:17;;;;;;;12.03;7.10;;;;;;;20.82;100.00;100448.18;1821122;77;21016;-61
2021/07/07 02:16:45;;;;;;;9.23;7.15;;;;;;;20.81;100.00;100434.70;1816482;77;21523;-61
2021/07/07 02:19:15;;;;;;;8.48;7.10;;;;;;;20.81;100.00;100448.33;1815828;78;21584;-61
2021/07/07 02:21:42;;;;;;;12.40;7.35;;;;;;;20.81;100.00;100441.00;1772274;79;21773;-61
2021/07/07 02:24:09;;;;;;;14.38;7.08;;;;;;;20.79;100.00;100453.86;1748211;80;20924;-60
2021/07/07 02:26:35;;;;;;;9.48;6.97;;;;;;;20.80;100.00;100458.34;1755234;80;20969;-61
2021/07/07 02:29:03;;;;;;;13.00;6.70;;;;;;;20.81;100.00;100459.22;1758069;80;20961;-61
2021/07/07 02:31:30;;;;;;;10.43;7.35;;;;;;;20.81;100.00;100456.50;1757169;80;21019;-61
2021/07/07 02:33:57;;;;;;;10.82;7.78;;;;;;;20.83;100.00;100449.91;1761664;80;21059;-61
2021/07/07 02:36:24;;;;;;;8.35;6.65;;;;;;;20.85;100.00;100452.52;1757889;80;21425;-61
2021/07/07 02:38:50;;;;;;;12.82;6.97;;;;;;;20.86;100.00;100464.63;1735637;81;21004;-61
2021/07/07 02:41:18;;;;;;;8.03;6.40;;;;;;;20.87;100.00;100475.91;1747817;80;20978;-61
2021/07/07 02:43:45;;;;;;;14.95;7.08;;;;;;;20.88;100.00;100469.45;1809981;77;20929;-62
2021/07/07 02:46:11;;;;;;;9.80;7.33;;;;;;;20.88;100.00;100453.63;1815994;77;21563;-61
2021/07/07 02:48:39;;;;;;;10.85;7.22;;;;;;;20.88;100.00;100468.09;1817147;77;20952;-62
2021/07/07 02:51:06;;;;;;;11.00;7.70;;;;;;;20.91;100.00;100465.62;1819382;77;20919;-61
2021/07/07 02:53:33;;;;;;;11.73;7.30;;;;;;;20.93;100.00;100470.95;1818412;77;20961;-62
2021/07/07 02:55:59;;;;;;;10.90;7.10;;;;;;;20.96;100.00;100484.33;1816838;77;20880;-61
2021/07/07 02:58:25;;;;;;;12.60;7.30;;;;;;;20.99;100.00;100469.07;1814383;77;21123;-61
2021/07/07 03:00:52;;;;;;;9.28;6.80;;;;;;;21.02;100.00;100486.52;1819422;77;20849;-62
2021/07/07 03:03:21;;;;;;;11.18;7.20;;;;;;;21.06;100.00;100477.09;1749437;79;21121;-60
2021/07/07 03:05:50;;;;;;;10.00;6.70;;;;;;;21.07;100.00;100473.38;1811950;77;20909;-60
2021/07/07 03:08:18;;;;;;;11.12;6.90;;;;;;;21.08;100.00;100470.16;1773589;80;21372;-60
2021/07/07 03:10:45;;;;;;;12.88;7.15;;;;;;;21.08;100.00;100473.73;1762534;79;21080;-60
2021/07/07 03:13:12;;;;;;;14.63;7.35;;;;;;;21.11;100.00;100476.72;1770381;79;21565;-61
2021/07/07 03:15:39;;;;;;;9.95;7.10;;;;;;;21.17;100.00;100502.08;1729671;81;20993;-61
2021/07/07 03:18:06;;;;;;;9.55;7.28;;;;;;;21.23;100.00;100493.89;1765152;79;20945;-61
2021/07/07 03:20:33;;;;;;;11.63;7.22;;;;;;;21.26;100.00;100505.41;1759676;79;20925;-62
2021/07/07 03:23:00;;;;;;;14.23;7.35;;;;;;;21.30;100.00;100504.64;1772717;79;21066;-61
2021/07/07 03:25:27;;;;;;;9.93;6.72;;;;;;;21.32;100.00;100514.91;1758155;79;20855;-61
2021/07/07 03:27:54;;;;;;;18.52;7.22;;;;;;;21.33;100.00;100503.01;1744702;80;21640;-61
2021/07/07 03:30:21;;;;;;;12.13;6.83;;;;;;;21.33;100.00;100507.10;1778346;79;20910;-62
2021/07/07 03:32:47;;;;;;;14.18;6.87;;;;;;;21.33;100.00;100513.92;1778679;79;21067;-62
2021/07/07 03:35:14;;;;;;;11.50;7.17;;;;;;;21.28;100.00;100522.51;1812519;77;21086;-61
2021/07/07 03:37:41;;;;;;;13.53;7.30;;;;;;;21.22;100.00;100527.61;1818564;77;21005;-61
2021/07/07 03:40:10;;;;;;;11.70;7.12;;;;;;;21.21;100.00;100514.97;1814432;77;20857;-61
2021/07/07 03:42:37;;;;;;;10.90;7.30;;;;;;;21.18;100.00;100542.86;1821248;77;21623;-61
2021/07/07 03:45:06;;;;;;;18.15;7.95;;;;;;;21.17;100.00;100516.59;1821254;77;21341;-60
2021/07/07 03:47:33;;;;;;;10.90;7.00;;;;;;;21.16;100.00;100520.80;1816667;77;21508;-60
2021/07/07 03:49:59;;;;;;;11.20;8.28;;;;;;;21.17;100.00;100548.42;1824516;77;21610;-60
2021/07/07 03:52:26;;;;;;;9.80;7.28;;;;;;;21.18;100.00;100525.14;1812279;77;21429;-62
2021/07/07 03:54:54;;;;;;;12.33;7.42;;;;;;;21.16;100.00;100548.05;1813123;77;21084;-62
2021/07/07 03:57:20;;;;;;;13.83;7.50;;;;;;;21.13;100.00;100547.84;1817491;77;21006;-63
2021/07/07 03:59:47;;;;;;;15.20;8.10;;;;;;;21.10;100.00;100537.16;1821990;77;21551;-60
2021/07/07 04:02:14;;;;;;;8.30;7.22;;;;;;;21.09;100.00;100566.77;1807311;77;20964;-62
2021/07/07 04:04:43;;;;;;;10.25;7.45;;;;;;;21.08;100.00;100558.73;1808817;77;21333;-60
2021/07/07 04:07:10;;;;;;;14.83;7.60;;;;;;;21.08;100.00;100560.95;1810163;77;20892;-61
2021/07/07 04:09:36;;;;;;;10.80;7.70;;;;;;;21.09;100.00;100570.86;1816014;77;21050;-60
2021/07/07 04:12:03;;;;;;;12.88;7.55;;;;;;;21.12;100.00;100577.93;1791416;77;21759;-61
2021/07/07 04:14:30;;;;;;;19.37;8.98;;;;;;;21.14;100.00;100564.55;1788181;79;21353;-61
2021/07/07 04:16:57;;;;;;;15.13;8.88;;;;;;;21.18;100.00;100561.06;1785037;78;21913;-61
2021/07/07 04:19:27;;;;;;;11.78;8.38;;;;;;;21.24;100.00;100562.41;1776706;78;21005;-60
2021/07/07 04:21:54;;;;;;;16.55;8.90;;;;;;;21.28;100.00;100563.41;1785138;78;20988;-60
2021/07/07 04:24:21;;;;;;;13.25;8.55;;;;;;;21.31;100.00;100570.44;1781973;79;21836;-61
2021/07/07 04:26:49;;;;;;;16.35;9.23;;;;;;;21.31;100.00;100563.63;1775384;79;21003;-62
2021/07/07 04:29:16;;;;;;;15.23;8.83;;;;;;;21.30;100.00;100565.50;1783589;78;20964;-62
2021/07/07 04:31:42;;;;;;;16.50;9.73;;;;;;;21.30;100.00;100585.06;1783931;79;21028;-61
2021/07/07 04:34:10;;;;;;;15.90;9.90;;;;;;;21.29;99.98;100588.79;1783912;79;20945;-61
2021/07/07 04:36:36;;;;;;;16.00;9.05;;;;;;;21.30;100.00;100571.44;1785566;79;21568;-61
2021/07/07 04:39:05;;;;;;;13.80;9.68;;;;;;;21.31;100.00;100589.05;1783096;79;21418;-62
2021/07/07 04:41:32;;;;;;;13.50;8.93;;;;;;;21.32;100.00;100583.08;1778161;79;20999;-62
2021/07/07 04:43:58;;;;;;;12.63;9.10;;;;;;;21.32;100.00;100598.07;1779830;78;20870;-62
2021/07/07 04:46:25;;;;;;;11.88;8.48;;;;;;;21.32;99.96;100596.70;1778308;79;20996;-61
2021/07/07 04:48:52;;;;;;;13.18;8.88;;;;;;;21.30;100.00;100599.58;1772743;79;21096;-62
2021/07/07 04:51:19;;;;;;;13.78;8.50;;;;;;;21.30;99.73;100608.24;1775139;79;21028;-61
2021/07/07 04:53:45;;;;;;;19.05;8.28;;;;;;;21.31;99.67;100609.97;1778414;79;21659;-61
2021/07/07 04:56:12;;;;;;;15.30;8.80;;;;;;;21.30;99.87;100598.70;1781113;79;21482;-61
2021/07/07 04:58:41;;;;;;;18.17;8.80;;;;;;;21.29;99.81;100599.70;1779640;79;20976;-61
2021/07/07 05:01:07;;;;;;;20.95;8.70;;;;;;;21.29;99.80;100607.88;1776076;78;21529;-61
2021/07/07 05:03:35;;;;;;;11.28;8.40;;;;;;;21.30;99.79;100611.84;1779797;79;21087;-63
2021/07/07 05:06:02;;;;;;;14.18;8.60;;;;;;;21.34;99.52;100619.30;1782389;79;21616;-62
2021/07/07 05:08:29;;;;;;;14.78;9.18;;;;;;;21.40;99.28;100615.16;1786912;79;20925;-62
2021/07/07 05:10:56;;;;;;;13.58;9.05;;;;;;;21.46;99.47;100623.70;1781356;79;21027;-62
2021/07/07 05:13:22;;;;;;;12.47;8.95;;;;;;;21.47;98.15;100634.13;1824560;77;22494;-62
2021/07/07 05:15:52;;;;;;;17.27;9.13;;;;;;;21.42;98.03;100634.98;1828537;77;21309;-62
2021/07/07 05:18:19;;;;;;;15.18;9.30;;;;;;;21.41;98.45;100625.95;1778165;79;21433;-62
2021/07/07 05:20:46;;;;;;;13.95;9.03;;;;;;;21.40;98.18;100632.41;1790966;78;21501;-62
2021/07/07 05:23:16;;;;;;;12.37;9.25;;;;;;;21.39;98.51;100634.77;1777697;79;20989;-62
2021/07/07 05:25:44;;;;;;;10.70;9.05;;;;;;;21.38;98.95;100625.34;1757862;80;21470;-62
2021/07/07 05:28:12;;;;;;;17.37;10.03;;;;;;;21.41;99.04;100634.14;1778434;78;20897;-62
2021/07/07 05:30:38;;;;;;;18.73;9.83;;;;;;;21.45;99.01;100635.61;1781451;79;21561;-62
2021/07/07 05:33:08;;;;;;;14.90;10.23;;;;;;;21.47;98.38;100648.62;1776743;79;20933;-63
2021/07/07 05:35:38;;;;;;;16.93;10.43;;;;;;;21.52;98.06;100646.00;1822917;77;21562;-62
2021/07/07 05:38:05;;;;;;;14.35;9.23;;;;;;;21.57;98.36;100641.05;1823125;77;21101;-63
2021/07/07 05:40:32;;;;;;;13.72;10.08;;;;;;;21.66;97.51;100666.70;1822412;77;21452;-63
2021/07/07 05:42:59;;;;;;;14.13;9.68;;;;;;;21.77;97.06;100648.06;1817746;77;21086;-63
2021/07/07 05:45:27;;;;;;;16.60;10.30;;;;;;;21.88;96.49;100649.41;1811015;77;20929;-63
2021/07/07 05:47:54;;;;;;;18.87;10.90;;;;;;;21.99;94.94;100656.16;1818368;77;20992;-61
2021/07/07 05:50:21;;;;;;;18.20;10.95;;;;;;;22.11;94.37;100663.83;1828500;77;21053;-62
2021/07/07 05:52:47;;;;;;;20.55;10.72;;;;;;;22.23;93.77;100656.45;1824467;77;20909;-63
2021/07/07 05:55:15;;;;;;;18.42;9.75;;;;;;;22.40;93.81;100657.71;1828534;77;21084;-61
2021/07/07 05:57:41;;;;;;;16.65;10.38;;;;;;;22.59;92.02;100667.92;1826978;77;21068;-61
2021/07/07 06:00:13;;;;;;;17.67;11.12;;;;;;;22.72;90.25;100665.48;1818499;77;21445;-61
2021/07/07 06:02:40;;;;;;;18.48;10.63;;;;;;;22.85;90.11;100657.06;1827302;77;21759;-63
2021/07/07 06:05:08;;;;;;;18.23;9.88;;;;;;;23.01;89.21;100664.27;1833823;77;21207;-63
2021/07/07 06:07:35;;;;;;;17.02;11.08;;;;;;;23.20;88.06;100665.84;1828934;77;21611;-62
2021/07/07 06:10:04;;;;;;;16.45;9.95;;;;;;;23.36;87.16;100663.98;1830879;77;21010;-63
2021/07/07 06:12:32;;;;;;;19.37;11.05;;;;;;;23.49;85.77;100673.30;1807752;77;21532;-62
2021/07/07 06:14:58;;;;;;;17.37;10.58;;;;;;;23.58;85.62;100673.31;1792372;78;21075;-61
2021/07/07 06:17:26;;;;;;;12.78;10.55;;;;;;;23.70;84.81;100689.11;1790693;78;21345;-62
2021/07/07 06:19:53;;;;;;;13.10;10.15;;;;;;;23.80;84.01;100678.70;1791576;78;20927;-63
2021/07/07 06:22:20;;;;;;;12.18;9.95;;;;;;;23.89;84.23;100676.46;1788376;78;21019;-64
2021/07/07 06:24:47;;;;;;;13.05;10.00;;;;;;;24.06;83.65;100687.75;1788412;78;20924;-62
2021/07/07 06:27:14;;;;;;;13.28;9.65;;;;;;;24.15;81.67;100686.39;1790649;78;21851;-63
2021/07/07 06:29:40;;;;;;;12.68;9.83;;;;;;;24.20;80.99;100688.67;1790097;78;20993;-63
2021/07/07 06:32:07;;;;;;;12.88;9.05;;;;;;;24.27;81.55;100685.73;1790428;78;21622;-64
2021/07/07 06:34:33;;;;;;;15.15;10.93;;;;;;;24.43;81.06;100676.06;1788617;78;20979;-62
2021/07/07 06:37:00;;;;;;;19.85;10.55;;;;;;;24.55;80.66;100682.24;1793845;78;20906;-62
2021/07/07 06:39:27;;;;;;;13.50;9.78;;;;;;;24.61;79.73;100692.09;1792965;78;21805;-60
2021/07/07 06:41:54;;;;;;;16.48;10.63;;;;;;;24.61;79.79;100674.27;1791512;78;21765;-63
2021/07/07 06:44:21;;;;;;;13.83;9.88;;;;;;;24.66;79.57;100686.69;1791473;78;20996;-61
2021/07/07 06:46:48;;;;;;;15.53;9.98;;;;;;;24.65;78.64;100685.81;1793224;78;21054;-61
2021/07/07 06:49:15;;;;;;;14.05;9.90;;;;;;;24.59;78.38;100683.15;1786835;78;21095;-63
2021/07/07 06:51:42;;;;;;;13.62;9.65;;;;;;;24.56;78.84;100680.70;1783840;78;21072;-61
2021/07/07 06:54:09;;;;;;;12.50;9.65;;;;;;;24.51;78.48;100678.92;1789031;78;20977;-61
2021/07/07 06:57:14;;;;;;;10.32;9.18;;;;;;;24.50;78.83;100699.12;1795144;79;20975;-61
2021/07/07 06:59:42;;;;;;;12.93;9.68;;;;;;;24.55;78.73;100692.69;1759048;79;21201;-73
2021/07/07 07:02:10;;;;;;;11.40;9.70;;;;;;;24.65;79.24;100679.45;1759303;79;21031;-78
2021/07/07 07:04:36;;;;;;;12.23;10.60;;;;;;;24.80;78.56;100695.83;1761303;79;21070;-77
2021/07/07 07:07:03;;;;;;;16.85;10.08;;;;;;;24.89;77.69;100674.39;1766549;79;21398;-79
2021/07/07 07:09:32;;;;;;;14.68;10.05;;;;;;;24.90;77.97;100686.20;1769160;79;20937;-79
2021/07/07 07:11:58;;;;;;;12.93;10.03;;;;;;;24.96;77.68;100690.23;1765274;79;21396;-77
2021/07/07 07:14:25;;;;;;;13.98;10.60;;;;;;;25.02;77.08;100689.14;1722444;81;20895;-70
2021/07/07 07:16:52;;;;;;;13.22;10.40;;;;;;;25.02;76.57;100696.48;1681240;82;21410;-78
2021/07/07 07:19:19;;;;;;;14.63;10.00;;;;;;;24.97;76.29;100701.56;1711041;82;21139;-75
2021/07/07 07:21:46;;;;;;;12.82;10.25;;;;;;;24.91;75.99;100706.28;1719009;81;21156;-72
2021/07/07 07:24:12;;;;;;;15.93;10.85;;;;;;;24.86;75.86;100726.76;1724849;81;21017;-75
2021/07/07 07:26:39;;;;;;;15.40;10.68;;;;;;;24.83;76.49;100702.38;1709888;82;21180;-77
2021/07/07 07:29:07;;;;;;;14.65;10.68;;;;;;;24.88;77.03;100719.28;1724831;81;21369;-78
2021/07/07 07:31:34;;;;;;;11.73;9.83;;;;;;;24.89;76.56;100723.75;1725730;81;21446;-78
2021/07/07 07:34:01;;;;;;;12.93;9.45;;;;;;;24.94;76.99;100718.31;1724595;81;21841;-76
2021/07/07 07:36:28;;;;;;;14.20;10.03;;;;;;;25.00;76.44;100721.34;1701908;82;21816;-76
2021/07/07 07:38:59;;;;;;;14.47;10.32;;;;;;;25.05;76.38;100705.78;1708062;82;21084;-77
2021/07/07 07:41:31;;;;;;;13.40;10.65;;;;;;;25.12;76.40;100707.42;1707953;82;21182;-77
2021/07/07 07:43:58;;;;;;;16.07;11.22;;;;;;;25.18;76.22;100722.77;1724486;82;21060;-76
2021/07/07 07:46:29;;;;;;;16.75;11.97;;;;;;;25.28;75.50;100724.60;1710341;82;21024;-75
2021/07/07 07:48:56;;;;;;;14.47;11.22;;;;;;;25.27;75.59;100741.59;1712164;82;21585;-76
2021/07/07 07:51:23;;;;;;;11.75;10.18;;;;;;;25.27;75.60;100725.62;1768390;79;21386;-76
2021/07/07 07:53:51;;;;;;;18.10;11.10;;;;;;;25.32;74.81;100739.25;1768074;79;21083;-77
2021/07/07 07:56:18;;;;;;;16.42;11.30;;;;;;;25.37;74.94;100723.72;1766973;79;20897;-79
2021/07/07 07:58:47;;;;;;;14.63;11.75;;;;;;;25.43;74.50;100727.21;1725881;81;20941;-75
2021/07/07 08:01:14;;;;;;;15.20;10.88;;;;;;;25.52;74.87;100733.70;1775369;79;20922;-75
2021/07/07 08:03:41;;;;;;;14.55;11.60;;;;;;;25.66;73.92;100735.07;1773602;79;21430;-77
2021/07/07 08:06:10;;;;;;;16.67;12.28;;;;;;;25.79;73.38;100735.23;1778557;79;21098;-78
2021/07/07 08:08:37;;;;;;;12.60;10.88;;;;;;;25.88;73.27;100737.03;1773792;79;20942;-78
2021/07/07 08:11:05;;;;;;;16.05;12.90;;;;;;;25.95;73.40;100741.41;1775218;79;21410;-76
2021/07/07 08:13:38;;;;;;;13.18;11.75;;;;;;;26.01;72.22;100749.89;1772810;79;21509;-76
2021/07/07 08:16:06;;;;;;;19.10;12.40;;;;;;;26.02;71.60;100752.11;1750096;79;21017;-75
2021/07/07 08:18:34;;;;;;;17.00;12.35;;;;;;;26.05;72.33;100744.08;1774049;79;21666;-77
2021/07/07 08:21:01;;;;;;;15.35;11.20;;;;;;;26.13;74.34;100746.41;1771794;79;20893;-78
2021/07/07 08:23:27;;;;;;;13.25;11.35;;;;;;;26.20;75.33;100754.92;1777227;79;20972;-68
2021/07/07 08:25:54;;;;;;;14.03;10.82;;;;;;;26.23;75.30;100762.85;1778058;79;21139;-70
2021/07/07 08:28:20;;;;;;;16.52;11.68;;;;;;;26.29;75.04;100764.08;1774246;79;22375;-73
2021/07/07 08:30:47;;;;;;;15.95;10.90;;;;;;;26.31;75.22;100761.55;1771188;79;21038;-75
2021/07/07 08:33:15;;;;;;;16.32;11.78;;;;;;;26.35;75.00;100762.60;1728315;81;21375;-69
2021/07/07 08:35:43;;;;;;;15.90;12.13;;;;;;;26.24;75.78;100756.34;1777987;79;20967;-70
2021/07/07 08:38:10;;;;;;;15.60;12.25;;;;;;;26.23;74.84;100776.59;1751562;79;20977;-65
2021/07/07 08:40:37;;;;;;;16.87;13.62;;;;;;;26.20;73.83;100764.55;1780273;79;21073;-65
2021/07/07 08:43:05;;;;;;;16.80;14.93;;;;;;;26.13;73.57;100760.64;1778146;79;21087;-68
2021/07/07 08:45:36;;;;;;;15.08;13.48;;;;;;;26.11;72.02;100766.80;1726539;81;20995;-69
2021/07/07 08:48:00;;;;;;;16.80;14.70;;;;;;;26.05;71.13;100797.64;1733636;81;21005;-70
2021/07/07 08:50:29;;;;;;;20.35;14.25;;;;;;;25.96;70.70;100785.17;1773198;79;21324;-68
2021/07/07 08:52:59;;;;;;;18.98;15.30;;;;;;;25.90;71.25;100784.42;1775107;79;21453;-69
2021/07/07 08:55:33;;;;;;;18.10;14.93;;;;;;;25.91;71.57;100783.41;1771623;79;21651;-77
2021/07/07 08:58:01;;;;;;;17.92;14.20;;;;;;;25.97;71.23;100791.02;1770581;79;21063;-77
2021/07/07 09:00:36;;;;;;;19.17;13.78;;;;;;;26.00;70.99;100794.86;1774444;78;21374;-76
2021/07/07 09:03:11;;;;;;;15.88;14.05;;;;;;;25.97;70.72;100803.37;1772331;78;21014;-73
2021/07/07 09:06:02;;;;;;;;;;;;;;;25.95;70.70;100802.67;1780716;78;21152;-68
2021/07/07 09:08:38;;;;;;;16.27;12.70;;;;;;;25.94;71.21;100798.72;1782288;78;22281;-69
2021/07/07 09:11:26;;;;;;;16.30;13.00;;;;;;;26.02;72.45;100801.06;1777321;78;22005;-67
2021/07/07 09:14:12;;;;;;;15.55;12.70;;;;;;;26.21;71.69;100793.74;1782035;79;21325;-69
2021/07/07 09:16:56;;;;;;;14.45;12.28;;;;;;;26.30;70.36;100791.42;1780993;78;20956;-67
2021/07/07 09:19:22;;;;;;;18.32;12.40;;;;;;;26.35;71.25;100803.82;1782553;78;20981;-70
2021/07/07 09:21:53;;;;;;;14.98;11.78;;;;;;;26.34;70.27;100795.23;1781245;78;21083;-69
2021/07/07 09:24:26;;;;;;;17.87;11.80;;;;;;;26.27;69.50;100808.22;1778866;79;21021;-69
2021/07/07 09:27:15;;;;;;;16.55;12.20;;;;;;;26.21;69.63;100812.98;1782800;78;21059;-69
2021/07/07 09:29:57;;;;;;;15.68;12.28;;;;;;;26.18;70.25;100817.38;1778147;78;20980;-69
2021/07/07 09:32:29;;;;;;;12.40;11.03;;;;;;;26.19;69.98;100824.61;1778071;78;20979;-68
2021/07/07 09:35:00;;;;;;;13.65;11.48;;;;;;;26.24;69.80;100808.54;1780104;78;21296;-75
2021/07/07 09:37:35;;;;;;;13.98;11.65;;;;;;;26.21;70.16;100812.09;1778607;78;21110;-72
2021/07/07 09:40:00;;;;;;;14.28;11.73;;;;;;;26.16;69.83;100822.14;1776065;78;20916;-72
2021/07/07 09:42:34;;;;;;;22.58;12.98;;;;;;;26.07;70.17;100816.20;1777954;78;20996;-73
2021/07/07 09:45:03;;;;;;;15.23;11.80;;;;;;;26.00;70.83;100811.34;1779157;78;21055;-69
2021/07/07 09:47:29;;;;;;;13.95;11.40;;;;;;;26.06;71.71;100828.22;1780130;78;21034;-70
2021/07/07 09:49:57;;;;;;;11.40;10.00;;;;;;;26.15;72.37;100806.67;1775418;78;20975;-68
2021/07/07 09:52:29;;;;;;;14.68;11.25;;;;;;;26.25;72.96;100804.77;1778234;78;21396;-69
2021/07/07 09:54:56;;;;;;;11.73;10.30;;;;;;;26.37;73.12;100801.78;1779829;78;21362;-74
2021/07/07 09:57:24;;;;;;;13.70;11.05;;;;;;;26.40;73.12;100795.97;1776960;79;20973;-69
2021/07/07 09:59:54;;;;;;;15.32;11.38;;;;;;;26.50;72.72;100805.02;1774505;78;21561;-71
2021/07/07 10:02:22;;;;;;;13.28;11.75;;;;;;;26.63;71.90;100804.61;1754311;79;20922;-67
2021/07/07 10:04:50;;;;;;;16.12;12.70;;;;;;;26.75;71.55;100809.35;1778036;79;21001;-73
2021/07/07 10:07:18;;;;;;;15.03;12.18;;;;;;;26.86;71.22;100817.41;1733201;81;21037;-69
2021/07/07 10:09:47;;;;;;;15.43;12.95;;;;;;;26.95;70.38;100818.83;1708845;80;21385;-65
2021/07/07 10:12:14;;;;;;;15.78;12.43;;;;;;;27.00;69.97;100813.70;1735432;80;21185;-75
2021/07/07 10:14:42;;;;;;;16.80;12.50;;;;;;;27.10;70.17;100814.48;1736955;80;20931;-73
2021/07/07 10:17:09;;;;;;;16.62;12.30;;;;;;;27.15;69.33;100814.86;1734291;81;20997;-70
2021/07/07 10:19:37;;;;;;;18.85;13.35;;;;;;;27.13;68.80;100807.78;1691450;81;21654;-71
2021/07/07 10:22:04;;;;;;;15.93;13.20;;;;;;;27.13;68.87;100813.28;1733638;80;21477;-71
2021/07/07 10:24:32;;;;;;;16.57;13.13;;;;;;;27.08;68.61;100819.28;1736686;80;21762;-75
2021/07/07 10:27:00;;;;;;;16.95;12.82;;;;;;;26.99;68.70;100817.48;1738759;80;20910;-75
2021/07/07 10:29:26;;;;;;;14.03;11.90;;;;;;;27.01;69.14;100809.93;1715031;80;21053;-71
2021/07/07 10:31:57;;;;;;;13.32;11.57;;;;;;;27.11;68.75;100818.96;1714734;81;21462;-75
2021/07/07 10:34:28;;;;;;;16.10;12.43;;;;;;;27.11;68.45;100817.59;1712792;82;21089;-70
2021/07/07 10:36:56;;;;;;;16.32;11.97;;;;;;;27.07;68.75;100812.03;1712362;81;21042;-76
2021/07/07 10:39:23;;;;;;;15.53;11.97;;;;;;;26.99;68.66;100815.61;1712537;82;20997;-75
2021/07/07 10:41:54;;;;;;;17.23;12.58;;;;;;;26.91;69.13;100817.42;1710260;82;20978;-77
2021/07/07 10:44:30;;;;;;;19.60;12.50;;;;;;;26.77;68.59;100819.68;1709174;81;21136;-77
2021/07/07 10:47:11;;;;;;;15.05;11.55;;;;;;;26.59;69.87;100817.80;1714782;82;21070;-77
2021/07/07 10:49:46;;;;;;;14.00;11.65;;;;;;;26.46;70.94;100817.34;1707358;82;21548;-77
2021/07/07 10:52:16;;;;;;;14.03;11.57;;;;;;;26.30;71.57;100813.41;1712339;82;21029;-72
2021/07/07 10:54:57;;;;;;;13.50;10.23;;;;;;;26.19;72.12;100813.61;1713538;82;21108;-69
2021/07/07 10:57:26;;;;;;;13.32;11.00;;;;;;;26.11;72.55;100810.75;1779144;79;20906;-72
2021/07/07 10:59:55;;;;;;;16.57;11.75;;;;;;;26.01;72.77;100815.81;1778236;79;20994;-76
2021/07/07 11:02:25;;;;;;;16.42;12.03;;;;;;;25.94;73.20;100813.30;1772322;79;21323;-74
2021/07/07 11:05:02;;;;;;;16.27;12.47;;;;;;;25.95;74.33;100805.42;1773318;79;21049;-70
2021/07/07 11:07:36;;;;;;;17.27;12.33;;;;;;;26.06;74.74;100808.98;1774522;79;20990;-77
2021/07/07 11:10:13;;;;;;;17.25;12.53;;;;;;;26.20;73.59;100823.62;1778780;79;21118;-72
2021/07/07 11:12:45;;;;;;;15.35;11.65;;;;;;;26.30;72.59;100807.91;1771708;79;21033;-72
2021/07/07 11:15:22;;;;;;;14.73;11.75;;;;;;;26.43;72.39;100810.80;1775582;79;21489;-72
2021/07/07 11:18:00;;;;;;;13.75;11.97;;;;;;;26.54;71.54;100811.92;1775660;79;20904;-72
2021/07/07 11:20:29;;;;;;;14.33;12.18;;;;;;;26.64;70.83;100815.08;1775461;79;20974;-71